createdAt,value
2022-11-21T00:00:53.432Z,84.90
2022-11-21T00:03:20.360Z,84.50
2022-11-21T00:05:47.750Z,84.70
2022-11-21T00:08:15.672Z,84.70
2022-11-21T00:10:42.912Z,85.10
2022-11-21T00:13:13.408Z,84.60
2022-11-21T00:15:40.024Z,84.70
2022-11-21T00:18:06.724Z,84.80
2022-11-21T00:20:35.811Z,85.10
2022-11-21T00:23:02.737Z,85.00
2022-11-21T00:25:29.381Z,84.60
2022-11-21T00:27:55.989Z,84.90
2022-11-21T00:30:22.599Z,84.90
2022-11-21T00:32:49.207Z,84.40
2022-11-21T00:35:15.834Z,84.60
2022-11-21T00:37:42.515Z,84.50
2022-11-21T00:40:09.456Z,84.00
2022-11-21T00:42:36.144Z,83.70
2022-11-21T00:45:03.072Z,83.50
2022-11-21T00:47:29.672Z,83.50
2022-11-21T00:49:56.356Z,83.50
2022-11-21T00:52:22.982Z,83.30
2022-11-21T00:54:49.608Z,82.90
2022-11-21T00:57:16.222Z,82.40
2022-11-21T00:59:42.833Z,82.80
2022-11-21T01:02:10.524Z,82.80
2022-11-21T01:04:37.204Z,83.10
2022-11-21T01:07:03.822Z,83.30
2022-11-21T01:09:30.530Z,83.20
2022-11-21T01:11:57.138Z,83.40
2022-11-21T01:14:24.342Z,83.50
2022-11-21T01:16:51.085Z,83.30
2022-11-21T01:19:17.703Z,83.20
2022-11-21T01:21:44.311Z,83.10
2022-11-21T01:24:11.856Z,83.10
2022-11-21T01:26:38.601Z,82.90
2022-11-21T01:29:05.827Z,82.70
2022-11-21T01:31:32.460Z,82.80
2022-11-21T01:33:59.799Z,83.40
2022-11-21T01:36:27.738Z,83.60
2022-11-21T01:38:55.116Z,83.60
2022-11-21T01:41:23.623Z,84.30
2022-11-21T01:43:50.639Z,84.30
2022-11-21T01:46:18.410Z,84.50
2022-11-21T01:48:53.997Z,85.10
2022-11-21T01:51:28.510Z,85.30
2022-11-21T01:54:15.435Z,85.50
2022-11-21T01:56:55.287Z,84.70
2022-11-21T01:59:25.915Z,85.50
2022-11-21T02:01:54.151Z,85.30
2022-11-21T02:04:22.366Z,85.10
2022-11-21T02:06:49.195Z,84.70
2022-11-21T02:09:15.899Z,84.40
2022-11-21T02:11:44.968Z,84.70
2022-11-21T02:14:11.848Z,84.50
2022-11-21T02:16:38.728Z,84.70
2022-11-21T02:19:06.759Z,84.10
2022-11-21T02:21:49.074Z,83.50
2022-11-21T02:24:21.000Z,83.10
2022-11-21T02:26:48.550Z,83.60
2022-11-21T02:29:15.795Z,83.60
2022-11-21T02:31:42.418Z,82.80
2022-11-21T02:34:09.048Z,82.40
2022-11-21T02:36:41.693Z,82.30
2022-11-21T02:39:10.590Z,82.70
2022-11-21T02:41:39.454Z,82.70
2022-11-21T02:44:09.170Z,82.70
2022-11-21T02:46:36.052Z,83.10
2022-11-21T02:49:06.228Z,83.00
2022-11-21T02:51:32.845Z,83.60
2022-11-21T02:53:59.441Z,83.80
2022-11-21T02:56:26.082Z,84.40
2022-11-21T02:58:52.936Z,84.40
2022-11-21T03:01:19.630Z,84.70
2022-11-21T03:03:46.267Z,84.90
2022-11-21T03:06:12.871Z,84.90
2022-11-21T03:08:39.462Z,84.60
2022-11-21T03:11:06.074Z,84.60
2022-11-21T03:13:32.694Z,84.70
2022-11-21T03:15:59.314Z,84.50
2022-11-21T03:18:25.932Z,84.40
2022-11-21T03:20:52.702Z,84.90
2022-11-21T03:23:19.316Z,84.50
2022-11-21T03:25:45.926Z,84.40
2022-11-21T03:28:12.522Z,84.60
2022-11-21T03:30:39.131Z,84.40
2022-11-21T03:33:05.756Z,83.90
2022-11-21T03:35:32.362Z,84.00
2022-11-21T03:37:59.031Z,84.50
2022-11-21T03:40:25.727Z,84.80
2022-11-21T03:42:52.343Z,84.60
2022-11-21T03:45:19.223Z,84.60
2022-11-21T03:47:45.846Z,85.10
2022-11-21T03:50:15.066Z,85.60
2022-11-21T03:52:41.800Z,85.50
2022-11-21T03:55:08.508Z,86.10
2022-11-21T03:57:35.094Z,86.30
2022-11-21T04:00:01.707Z,86.20
2022-11-21T04:02:31.249Z,86.80
2022-11-21T04:04:57.871Z,87.20
2022-11-21T04:07:24.635Z,86.50
2022-11-21T04:09:51.273Z,87.20
2022-11-21T04:12:17.876Z,87.40
2022-11-21T04:14:44.512Z,86.50
2022-11-21T04:17:11.181Z,86.40
2022-11-21T04:19:37.854Z,85.80
2022-11-21T04:22:04.458Z,85.90
2022-11-21T04:24:31.270Z,85.50
2022-11-21T04:26:57.950Z,85.80
2022-11-21T04:29:24.869Z,85.50
2022-11-21T04:31:51.472Z,85.20
2022-11-21T04:34:18.102Z,85.70
2022-11-21T04:36:44.820Z,85.50
2022-11-21T04:39:11.483Z,85.90
2022-11-21T04:41:38.139Z,86.00
2022-11-21T04:44:04.999Z,86.10
2022-11-21T04:46:31.642Z,86.20
2022-11-21T04:48:58.294Z,86.50
2022-11-21T04:51:25.962Z,86.70
2022-11-21T04:53:54.596Z,86.70
2022-11-21T04:56:21.244Z,86.70
2022-11-21T04:58:47.870Z,86.70
2022-11-21T05:01:14.572Z,86.90
2022-11-21T05:03:41.248Z,87.40
2022-11-21T05:06:08.037Z,86.80
2022-11-21T05:08:34.640Z,87.40
2022-11-21T05:11:19.983Z,87.20
2022-11-21T05:13:46.673Z,87.20
2022-11-21T05:16:13.363Z,87.60
2022-11-21T05:18:40.030Z,87.40
2022-11-21T05:21:06.671Z,87.60
2022-11-21T05:23:33.415Z,87.90
2022-11-21T05:26:00.149Z,87.70
2022-11-21T05:28:26.941Z,88.10
2022-11-21T05:30:53.558Z,88.60
2022-11-21T05:33:20.378Z,88.90
2022-11-21T05:35:47.074Z,89.10
2022-11-21T05:38:13.744Z,88.90
2022-11-21T05:40:40.396Z,89.10
2022-11-21T05:43:25.800Z,89.10
2022-11-21T05:45:52.533Z,89.30
2022-11-21T05:48:19.159Z,89.30
2022-11-21T05:50:51.982Z,89.20
2022-11-21T05:53:18.716Z,89.50
2022-11-21T05:55:45.368Z,89.00
2022-11-21T05:58:12.148Z,89.40
2022-11-21T06:00:38.781Z,89.30
2022-11-21T06:03:24.760Z,89.70
2022-11-21T06:05:51.572Z,89.70
2022-11-21T06:08:18.287Z,90.10
2022-11-21T06:10:44.915Z,90.00
2022-11-21T06:13:31.803Z,89.70
2022-11-21T06:16:00.113Z,89.60
2022-11-21T06:18:27.144Z,89.60
2022-11-21T06:20:53.778Z,89.90
2022-11-21T06:23:20.510Z,90.00
2022-11-21T06:25:47.188Z,89.60
2022-11-21T06:28:13.783Z,89.60
2022-11-21T06:30:40.428Z,89.90
2022-11-21T06:33:07.378Z,90.30
2022-11-21T06:35:36.720Z,90.40
2022-11-21T06:38:03.346Z,90.20
2022-11-21T06:40:30.003Z,90.20
2022-11-21T06:42:56.641Z,90.10
2022-11-21T06:45:23.264Z,89.90
2022-11-21T06:47:49.903Z,89.50
2022-11-21T06:50:16.624Z,89.30
2022-11-21T06:52:43.283Z,89.00
2022-11-21T06:55:10.511Z,88.90
2022-11-21T06:57:37.251Z,89.50
2022-11-21T07:00:04.476Z,89.50
2022-11-21T07:02:31.135Z,89.60
2022-11-21T07:04:57.776Z,89.50
2022-11-21T07:07:24.446Z,89.60
2022-11-21T07:09:51.282Z,89.40
2022-11-21T07:12:36.552Z,89.30
2022-11-21T07:15:03.218Z,89.30
2022-11-21T07:17:29.825Z,89.00
2022-11-21T07:19:56.453Z,88.80
2022-11-21T07:22:23.064Z,88.70
2022-11-21T07:24:49.712Z,88.70
2022-11-21T07:27:16.311Z,88.60
2022-11-21T07:29:42.927Z,88.30
2022-11-21T07:32:12.598Z,88.30
2022-11-21T07:34:39.224Z,88.30
2022-11-21T07:37:05.880Z,88.20
2022-11-21T07:39:32.478Z,88.30
2022-11-21T07:41:59.094Z,88.30
2022-11-21T07:44:25.698Z,87.80
2022-11-21T07:46:55.655Z,87.80
2022-11-21T07:49:22.417Z,87.80
2022-11-21T07:51:49.038Z,87.50
2022-11-21T07:54:15.648Z,87.70
2022-11-21T07:56:42.260Z,87.90
2022-11-21T07:59:08.913Z,87.60
2022-11-21T08:01:35.567Z,87.40
2022-11-21T08:04:02.203Z,87.80
2022-11-21T08:06:28.802Z,87.70
2022-11-21T08:08:55.408Z,87.00
2022-11-21T08:11:22.277Z,87.30
2022-11-21T08:13:50.147Z,87.20
2022-11-21T08:16:16.802Z,88.10
2022-11-21T08:18:43.428Z,87.60
2022-11-21T08:21:10.066Z,87.00
2022-11-21T08:23:36.679Z,87.80
2022-11-21T08:26:03.318Z,87.20
2022-11-21T08:28:29.952Z,87.30
2022-11-21T08:30:56.620Z,87.60
2022-11-21T08:33:23.283Z,87.30
2022-11-21T08:35:49.940Z,87.80
2022-11-21T08:38:16.906Z,87.60
2022-11-21T08:40:43.674Z,87.20
2022-11-21T08:43:10.347Z,87.50
2022-11-21T08:45:37.978Z,86.40
2022-11-21T08:48:04.794Z,85.80
2022-11-21T08:50:32.152Z,85.20
2022-11-21T08:53:00.124Z,86.40
2022-11-21T08:55:26.856Z,85.90
2022-11-21T08:57:53.608Z,86.40
2022-11-21T09:00:20.259Z,86.10
2022-11-21T09:02:46.923Z,84.80
2022-11-21T09:05:13.630Z,85.40
2022-11-21T09:07:41.327Z,85.50
2022-11-21T09:10:08.271Z,85.40
2022-11-21T09:12:34.912Z,84.10
2022-11-21T09:15:20.203Z,84.90
2022-11-21T09:18:05.061Z,84.20
2022-11-21T09:20:34.048Z,84.30
2022-11-21T09:23:04.933Z,84.00
2022-11-21T09:25:31.562Z,84.10
2022-11-21T09:28:05.698Z,84.20
2022-11-21T09:30:32.562Z,83.20
2022-11-21T09:33:00.200Z,83.10
2022-11-21T09:35:26.812Z,82.60
2022-11-21T09:37:53.445Z,83.30
2022-11-21T09:40:20.207Z,82.90
2022-11-21T09:42:49.981Z,82.60
2022-11-21T09:45:19.415Z,82.40
2022-11-21T09:47:47.823Z,82.30
2022-11-21T09:50:14.559Z,83.60
2022-11-21T09:52:49.479Z,80.70
2022-11-21T09:55:36.460Z,81.50
2022-11-21T09:58:22.075Z,83.40
2022-11-21T10:00:50.550Z,83.70
2022-11-21T10:03:22.131Z,84.50
2022-11-21T10:05:58.215Z,84.10
2022-11-21T10:08:24.868Z,85.20
2022-11-21T10:11:17.787Z,86.30
2022-11-21T10:13:55.386Z,86.40
2022-11-21T10:16:26.962Z,87.20
2022-11-21T10:19:05.907Z,86.80
2022-11-21T10:21:39.503Z,86.40
2022-11-21T10:24:26.655Z,87.70
2022-11-21T10:26:56.248Z,88.30
2022-11-21T10:29:34.835Z,88.00
2022-11-21T10:32:03.745Z,88.40
2022-11-21T10:34:31.209Z,88.50
2022-11-21T10:37:00.253Z,88.70
2022-11-21T10:39:39.664Z,89.10
2022-11-21T10:42:24.974Z,88.80
2022-11-21T10:45:10.440Z,88.80
2022-11-21T10:47:40.123Z,88.50
2022-11-21T10:50:27.041Z,89.40
2022-11-21T10:53:02.615Z,89.20
2022-11-21T10:55:29.241Z,88.10
2022-11-21T10:57:55.964Z,87.80
2022-11-21T11:00:24.035Z,86.40
2022-11-21T11:02:56.665Z,86.60
2022-11-21T11:05:27.536Z,86.30
2022-11-21T11:08:06.359Z,84.70
2022-11-21T11:10:34.316Z,85.00
2022-11-21T11:16:06.342Z,84.00
2022-11-21T11:18:34.639Z,84.70
2022-11-21T11:21:21.440Z,84.90
2022-11-21T11:23:49.450Z,82.20
2022-11-21T11:26:27.648Z,81.30
2022-11-21T11:29:06.897Z,81.60
2022-11-21T11:31:40.763Z,81.60
2022-11-21T11:34:11.362Z,81.80
2022-11-21T11:36:44.454Z,80.10
2022-11-21T11:39:17.991Z,79.90
2022-11-21T11:42:06.485Z,79.00
2022-11-21T11:44:54.531Z,79.90
2022-11-21T11:47:30.470Z,78.20
2022-11-21T11:50:17.545Z,79.90
2022-11-21T11:52:44.124Z,81.50
2022-11-21T11:55:18.499Z,80.10
2022-11-21T11:57:47.040Z,80.60
2022-11-21T12:00:43.092Z,79.70
2022-11-21T12:03:20.192Z,79.50
2022-11-21T12:05:54.540Z,79.10
2022-11-21T12:08:41.854Z,77.90
2022-11-21T12:11:47.026Z,78.50
2022-11-21T12:14:37.151Z,79.70
2022-11-21T12:17:05.024Z,79.80
2022-11-21T12:19:31.623Z,79.70
2022-11-21T12:21:58.269Z,79.90
2022-11-21T12:24:24.921Z,80.30
2022-11-21T12:26:54.966Z,79.70
2022-11-21T12:29:40.304Z,79.40
2022-11-21T12:32:10.140Z,79.30
2022-11-21T12:34:55.703Z,79.00
2022-11-21T12:37:34.501Z,80.70
2022-11-21T12:40:01.155Z,79.00
2022-11-21T12:42:50.780Z,78.70
2022-11-21T12:45:29.391Z,80.20
2022-11-21T12:48:29.956Z,79.10
2022-11-21T12:51:34.507Z,79.70
2022-11-21T12:54:31.544Z,78.30
2022-11-21T12:57:03.469Z,77.80
2022-11-21T12:59:52.226Z,78.40
2022-11-21T13:02:24.845Z,76.40
2022-11-21T13:04:53.188Z,76.90
2022-11-21T13:07:20.343Z,75.80
2022-11-21T13:09:48.246Z,73.30
2022-11-21T13:12:35.099Z,74.10
2022-11-21T13:15:01.693Z,72.30
2022-11-21T13:17:31.414Z,62.80
2022-11-21T13:20:16.870Z,61.50
2022-11-21T13:22:47.257Z,58.00
2022-11-21T13:25:33.985Z,57.80
2022-11-21T13:28:19.013Z,57.10
2022-11-21T13:30:55.738Z,58.50
2022-11-21T13:33:34.590Z,60.60
2022-11-21T13:36:02.505Z,64.30
2022-11-21T13:38:29.130Z,58.40
2022-11-21T13:41:14.543Z,56.60
2022-11-21T13:43:41.220Z,50.30
2022-11-21T13:46:07.840Z,47.70
2022-11-21T13:48:42.849Z,45.80
2022-11-21T13:51:21.787Z,46.70
2022-11-21T13:53:58.033Z,53.10
2022-11-21T13:56:40.571Z,54.00
2022-11-21T13:59:26.193Z,53.10
2022-11-21T14:02:02.362Z,52.10
2022-11-21T14:04:39.013Z,47.90
2022-11-21T14:07:24.672Z,47.00
2022-11-21T14:09:52.478Z,44.90
2022-11-21T14:12:21.346Z,43.30
2022-11-21T14:14:51.558Z,44.70
2022-11-21T14:17:29.949Z,43.30
2022-11-21T14:19:57.303Z,43.30
2022-11-21T14:22:45.809Z,41.90
2022-11-21T14:25:17.523Z,42.90
2022-11-21T14:27:47.258Z,45.90
2022-11-21T14:30:32.451Z,45.80
2022-11-21T14:33:17.856Z,45.60
2022-11-21T14:35:47.816Z,46.00
2022-11-21T14:38:14.516Z,47.40
2022-11-21T14:40:41.191Z,47.10
2022-11-21T14:43:47.101Z,49.20
2022-11-21T14:46:19.588Z,50.90
2022-11-21T14:48:47.174Z,54.40
2022-11-21T14:51:17.408Z,57.70
2022-11-21T14:53:44.570Z,59.40
2022-11-21T14:56:12.718Z,61.80
2022-11-21T14:58:40.508Z,63.00
2022-11-21T15:01:08.392Z,63.90
2022-11-21T15:03:35.261Z,65.30
2022-11-21T15:06:06.279Z,66.80
2022-11-21T15:11:24.682Z,69.80
2022-11-21T15:16:41.813Z,71.50
2022-11-21T15:19:09.644Z,72.40
2022-11-21T15:21:36.271Z,73.30
2022-11-21T15:24:15.981Z,73.90
2022-11-21T15:26:42.776Z,74.50
2022-11-21T15:29:17.611Z,75.10
2022-11-21T15:31:44.408Z,75.30
2022-11-21T15:37:03.388Z,77.50
2022-11-21T15:39:30.136Z,77.80
2022-11-21T15:42:16.718Z,77.90
2022-11-21T15:45:00.030Z,77.90
2022-11-21T15:47:26.722Z,78.00
2022-11-21T15:49:53.398Z,78.10
2022-11-21T15:52:20.549Z,78.00
2022-11-21T15:54:48.213Z,78.20
2022-11-21T15:57:16.976Z,78.60
2022-11-21T15:59:44.432Z,78.50
2022-11-21T16:02:12.476Z,78.90
2022-11-21T16:04:39.148Z,78.10
2022-11-21T16:07:05.820Z,79.00
2022-11-21T16:09:32.930Z,79.00
2022-11-21T16:11:59.542Z,79.10
2022-11-21T16:14:26.148Z,79.70
2022-11-21T16:16:52.772Z,79.70
2022-11-21T16:19:19.440Z,80.50
2022-11-21T16:21:46.072Z,80.00
2022-11-21T16:24:12.707Z,80.00
2022-11-21T16:26:39.320Z,80.10
2022-11-21T16:29:06.237Z,80.30
2022-11-21T16:31:33.206Z,80.40
2022-11-21T16:34:00.644Z,80.40
2022-11-21T16:36:31.133Z,80.20
2022-11-21T16:39:01.968Z,80.20
2022-11-21T16:41:32.178Z,80.90
2022-11-21T16:43:58.974Z,81.20
2022-11-21T16:46:25.987Z,80.70
2022-11-21T16:49:00.219Z,81.80
2022-11-21T16:51:27.254Z,81.70
2022-11-21T16:53:54.540Z,82.00
2022-11-21T16:56:21.311Z,82.30
2022-11-21T16:58:48.049Z,82.30
2022-11-21T17:01:16.197Z,82.30
2022-11-21T17:03:43.528Z,81.80
2022-11-21T17:06:10.907Z,81.50
2022-11-21T17:08:37.840Z,81.60
2022-11-21T17:11:13.530Z,82.20
2022-11-21T17:13:40.562Z,81.90
2022-11-21T17:16:07.670Z,81.40
2022-11-21T17:18:34.370Z,82.00
2022-11-21T17:21:08.977Z,82.30
2022-11-21T17:23:36.923Z,83.00
2022-11-21T17:26:08.549Z,82.50
2022-11-21T17:28:35.541Z,81.90
2022-11-21T17:31:06.326Z,82.30
2022-11-21T17:33:33.110Z,82.70
2022-11-21T17:36:01.853Z,82.40
2022-11-21T17:38:28.620Z,82.00
2022-11-21T17:40:59.286Z,82.10
2022-11-21T17:43:25.896Z,81.70
2022-11-21T17:45:56.675Z,82.40
2022-11-21T17:48:23.284Z,82.40
2022-11-21T17:50:58.998Z,81.90
2022-11-21T17:53:25.891Z,82.20
2022-11-21T17:56:01.670Z,82.30
2022-11-21T17:58:28.512Z,82.20
2022-11-21T18:00:56.318Z,82.30
2022-11-21T18:03:23.420Z,82.60
2022-11-21T18:05:58.765Z,82.50
2022-11-21T18:08:25.405Z,82.40
2022-11-21T18:10:53.369Z,81.80
2022-11-21T18:13:19.996Z,81.70
2022-11-21T18:15:47.989Z,81.60
2022-11-21T18:18:14.847Z,81.40
2022-11-21T18:20:41.494Z,81.50
2022-11-21T18:23:08.471Z,81.90
2022-11-21T18:25:35.810Z,82.20
2022-11-21T18:28:02.539Z,82.10
2022-11-21T18:30:29.472Z,83.00
2022-11-21T18:32:56.118Z,82.10
2022-11-21T18:35:22.806Z,83.10
2022-11-21T18:37:49.453Z,83.10
2022-11-21T18:40:16.285Z,83.00
2022-11-21T18:42:43.941Z,83.50
2022-11-21T18:45:10.570Z,83.50
2022-11-21T18:47:37.191Z,83.00
2022-11-21T18:50:04.027Z,83.30
2022-11-21T18:52:33.757Z,82.60
2022-11-21T18:55:00.370Z,82.90
2022-11-21T18:57:27.045Z,82.70
2022-11-21T18:59:53.671Z,81.90
2022-11-21T19:02:20.282Z,82.00
2022-11-21T19:04:46.897Z,82.50
2022-11-21T19:07:14.600Z,81.90
2022-11-21T19:09:41.561Z,81.70
2022-11-21T19:12:08.192Z,81.50
2022-11-21T19:14:34.808Z,81.60
2022-11-21T19:17:01.473Z,82.70
2022-11-21T19:19:36.486Z,82.90
2022-11-21T19:22:05.531Z,82.50
2022-11-21T19:24:32.247Z,82.10
2022-11-21T19:26:58.905Z,82.80
2022-11-21T19:29:25.759Z,83.50
2022-11-21T19:31:52.543Z,83.80
2022-11-21T19:34:19.557Z,83.80
2022-11-21T19:36:46.591Z,82.80
2022-11-21T19:39:13.573Z,83.40
2022-11-21T19:41:40.299Z,82.90
2022-11-21T19:44:06.935Z,83.30
2022-11-21T19:46:37.720Z,83.70
2022-11-21T19:49:05.612Z,83.90
2022-11-21T19:51:33.571Z,84.40
2022-11-21T19:54:04.244Z,84.60
2022-11-21T19:56:30.933Z,84.60
2022-11-21T19:58:57.641Z,85.00
2022-11-21T20:01:25.809Z,84.80
2022-11-21T20:03:56.598Z,85.20
2022-11-21T20:06:31.032Z,85.20
2022-11-21T20:09:02.269Z,84.90
2022-11-21T20:11:29.891Z,85.40
2022-11-21T20:13:56.945Z,84.60
2022-11-21T20:16:25.043Z,84.30
2022-11-21T20:18:52.272Z,82.70
2022-11-21T20:21:19.330Z,83.30
2022-11-21T20:23:46.377Z,84.20
2022-11-21T20:26:13.583Z,83.90
2022-11-21T20:28:40.233Z,84.20
2022-11-21T20:31:17.158Z,83.60
2022-11-21T20:33:44.734Z,83.80
2022-11-21T20:36:16.071Z,83.80
2022-11-21T20:38:43.499Z,84.10
2022-11-21T20:41:10.132Z,84.10
2022-11-21T20:44:14.230Z,83.70
2022-11-21T20:46:23.528Z,84.30
2022-11-21T20:48:50.185Z,81.90
2022-11-21T20:54:04.299Z,83.30
2022-11-21T20:56:34.728Z,83.50
2022-11-21T20:59:01.428Z,84.20
2022-11-21T21:01:28.560Z,84.90
2022-11-21T21:03:55.711Z,84.70
2022-11-21T21:06:24.026Z,84.00
2022-11-21T21:08:51.218Z,85.00
2022-11-21T21:11:51.494Z,86.20
2022-11-21T21:14:09.340Z,86.40
2022-11-21T21:16:36.218Z,86.30
2022-11-21T21:19:03.377Z,84.90
2022-11-21T21:21:32.984Z,84.40
2022-11-21T21:24:00.754Z,86.20
2022-11-21T21:26:28.903Z,85.90
2022-11-21T21:28:56.484Z,86.10
2022-11-21T21:31:23.549Z,86.20
2022-11-21T21:33:50.237Z,86.00
2022-11-21T21:36:16.811Z,85.10
2022-11-21T21:38:44.515Z,84.10
2022-11-21T21:41:12.392Z,84.40
2022-11-21T21:43:39.380Z,83.80
2022-11-21T21:46:07.113Z,84.60
2022-11-21T21:48:34.099Z,84.60
2022-11-21T21:51:07.510Z,84.40
2022-11-21T21:53:37.710Z,84.10
2022-11-21T21:56:05.320Z,84.10
2022-11-21T21:58:33.395Z,84.20
2022-11-21T22:01:07.578Z,83.70
2022-11-21T22:03:34.538Z,83.60
2022-11-21T22:06:05.051Z,83.60
2022-11-21T22:08:33.150Z,83.00
2022-11-21T22:11:07.081Z,83.70
2022-11-21T22:13:33.915Z,83.00
2022-11-21T22:16:01.036Z,83.30
2022-11-21T22:18:28.213Z,82.50
2022-11-21T22:20:55.118Z,82.80
2022-11-21T22:23:22.203Z,82.50
2022-11-21T22:25:48.931Z,82.80
2022-11-21T22:28:15.551Z,82.80
2022-11-21T22:30:42.176Z,82.50
2022-11-21T22:33:08.871Z,82.30
2022-11-21T22:35:35.449Z,82.10
2022-11-21T22:38:02.046Z,82.30
2022-11-21T22:40:28.704Z,81.90
2022-11-21T22:42:55.301Z,81.50
2022-11-21T22:45:21.962Z,81.40
2022-11-21T22:47:48.579Z,80.90
2022-11-21T22:50:15.694Z,80.60
2022-11-21T22:52:42.457Z,80.00
2022-11-21T22:55:09.236Z,80.10
2022-11-21T22:57:35.839Z,80.30
2022-11-21T23:00:02.517Z,80.40
2022-11-21T23:02:29.170Z,80.30
2022-11-21T23:04:55.790Z,80.30
2022-11-21T23:07:22.470Z,80.40
2022-11-21T23:09:49.601Z,80.40
2022-11-21T23:12:16.199Z,80.70
2022-11-21T23:14:42.805Z,80.70
2022-11-21T23:17:09.439Z,80.40
2022-11-21T23:19:36.030Z,80.10
2022-11-21T23:22:02.644Z,80.00
2022-11-21T23:24:29.605Z,79.70
2022-11-21T23:26:56.303Z,80.00
2022-11-21T23:29:22.902Z,79.80
2022-11-21T23:31:49.522Z,79.60
2022-11-21T23:34:16.158Z,79.30
2022-11-21T23:36:43.056Z,79.40
2022-11-21T23:39:09.701Z,79.60
2022-11-21T23:41:36.409Z,79.80
2022-11-21T23:44:03.147Z,79.80
2022-11-21T23:46:30.204Z,79.60
2022-11-21T23:48:57.026Z,79.40
2022-11-21T23:51:23.626Z,79.90
2022-11-21T23:53:50.235Z,79.90
2022-11-21T23:56:17.037Z,80.00
2022-11-21T23:58:43.654Z,80.20
